Terminal Aerodrome Forecast
Issued by NWS

Home | Current Version | Previous Version | Text Only | Print | Product List | Glossary On
Versions: 1 2 3 4 5 6 7 8 9 10 11 12 13 14 15 16 17 18 19 20 21 22 23 24 25 26 27 28 29 30 31
295
FTUS43 KPAH 301128
TAFOWB
TAF
KOWB 301128Z 3012/0112 07006KT P6SM -SHRA SCT050 OVC100
     FM301500 10010KT 5SM -SHRA BR BKN005 OVC040
      TEMPO 3015/3018 2SM TSRA BR BKN015CB
     FM301800 17012G19KT P6SM SCT030 BKN150
     FM010100 18006KT P6SM SCT050 BKN150 PROB30 0103/0109 4SM TSRA
      BKN035CB
     FM010900 20003KT 4SM BR BKN006=

USA.gov is the U.S. government's official web portal to all federal, state and local government web resources and services.